Time;durP1;ratioP1;P1;durP2;ratioP2;P2;SDS_P1;SDS_P2;PMS_P1;PMS_P2;Temp;Humidity;BMP_temperature;BMP_pressure;BME280_temperature;BME280_humidity;BME280_pressure;Samples;Min_cycle;Max_cycle;Signal;HPM_P1;HPM_P2
2022/03/05 00:03:18;;;;;;;37.20;15.53;;;;;-0.50;96558.00;;;;8382482;28;20224;-71
2022/03/05 00:07:21;;;;;;;40.03;13.97;;;;;-0.40;96564.00;;;;8373212;28;20250;-70
2022/03/05 00:11:25;;;;;;;36.80;13.77;;;;;-0.50;96559.00;;;;8370021;28;20256;-70
2022/03/05 00:15:29;;;;;;;33.93;14.67;;;;;-0.50;96554.00;;;;8374585;28;20235;-71
2022/03/05 00:19:32;;;;;;;37.90;14.83;;;;;-0.50;96559.00;;;;8365052;28;20228;-69
2022/03/05 00:23:35;;;;;;;39.57;14.37;;;;;-0.50;96554.00;;;;8378437;28;20227;-69
2022/03/05 00:27:40;;;;;;;38.43;14.03;;;;;-0.50;96561.00;;;;8382827;28;20220;-69
2022/03/05 00:31:43;;;;;;;40.07;15.00;;;;;-0.60;96560.00;;;;8397448;28;20228;-70
2022/03/05 00:35:46;;;;;;;36.50;14.80;;;;;-0.60;96565.00;;;;8380549;28;20589;-69
2022/03/05 00:39:50;;;;;;;33.93;14.73;;;;;-0.60;96574.00;;;;8373943;28;20270;-71
2022/03/05 00:43:54;;;;;;;42.53;16.53;;;;;-0.70;96572.00;;;;8375901;28;20281;-69
2022/03/05 00:47:57;;;;;;;40.80;15.30;;;;;-0.70;96571.00;;;;8370062;28;20258;-68
2022/03/05 00:52:00;;;;;;;45.70;18.60;;;;;-0.80;96571.00;;;;8372977;28;20227;-70
2022/03/05 00:56:04;;;;;;;46.90;17.60;;;;;-0.90;96565.00;;;;8372782;28;20224;-68
2022/03/05 01:00:11;;;;;;;43.13;17.03;;;;;-1.00;96570.00;;;;8372035;28;20305;-69
2022/03/05 01:04:14;;;;;;;42.87;16.10;;;;;-1.00;96569.00;;;;8374194;28;20236;-69
2022/03/05 01:08:17;;;;;;;40.90;15.80;;;;;-1.10;96570.00;;;;8383367;28;20620;-69
2022/03/05 01:12:21;;;;;;;48.57;18.93;;;;;-1.10;96554.00;;;;8380145;28;20223;-69
2022/03/05 01:16:26;;;;;;;44.40;16.50;;;;;-1.20;96555.00;;;;8362109;28;20224;-69
2022/03/05 01:20:29;;;;;;;42.10;15.30;;;;;-1.30;96555.00;;;;8366235;28;20723;-70
2022/03/05 01:24:32;;;;;;;45.97;16.60;;;;;-1.30;96550.00;;;;8362786;28;20918;-68
2022/03/05 01:28:35;;;;;;;40.63;16.23;;;;;-1.20;96545.00;;;;8380852;28;20216;-70
2022/03/05 01:32:40;;;;;;;36.97;14.70;;;;;-1.30;96535.00;;;;8380806;28;20798;-70
2022/03/05 01:36:43;;;;;;;39.83;16.07;;;;;-1.30;96534.00;;;;8367205;28;20236;-69
2022/03/05 01:40:46;;;;;;;37.70;15.10;;;;;-1.30;96530.00;;;;8376347;28;20285;-68
2022/03/05 01:44:50;;;;;;;38.57;15.37;;;;;-1.30;96531.00;;;;8364225;28;20317;-69
2022/03/05 01:48:54;;;;;;;33.87;14.63;;;;;-1.40;96524.00;;;;8366591;28;20844;-70
2022/03/05 01:52:58;;;;;;;37.10;14.23;;;;;-1.40;96526.00;;;;8374053;28;20357;-70
2022/03/05 01:57:02;;;;;;;42.33;16.37;;;;;-1.50;96527.00;;;;8372076;28;20227;-70
2022/03/05 02:01:05;;;;;;;33.30;13.40;;;;;-1.50;96519.00;;;;8374413;28;21567;-69
2022/03/05 02:05:10;;;;;;;40.33;14.17;;;;;-1.60;96505.00;;;;8373098;28;20217;-71
2022/03/05 02:09:13;;;;;;;39.33;13.63;;;;;-1.70;96518.00;;;;8367050;28;20270;-70
2022/03/05 02:13:16;;;;;;;32.10;13.40;;;;;-1.90;96517.00;;;;8370135;28;20277;-70
2022/03/05 02:17:19;;;;;;;33.40;13.60;;;;;-2.10;96514.00;;;;8373987;28;20232;-70
2022/03/05 02:21:25;;;;;;;38.33;14.10;;;;;-2.20;96512.00;;;;8364296;28;20330;-69
2022/03/05 02:25:28;;;;;;;39.00;14.27;;;;;-2.40;96519.00;;;;8378045;28;20232;-68
2022/03/05 02:29:32;;;;;;;40.17;14.80;;;;;-2.50;96506.00;;;;8379788;28;20227;-71
2022/03/05 02:33:35;;;;;;;38.23;13.70;;;;;-2.50;96512.00;;;;8377087;28;20392;-70
2022/03/05 02:37:40;;;;;;;38.30;14.20;;;;;-2.40;96517.00;;;;8375706;28;20273;-69
2022/03/05 02:41:43;;;;;;;41.17;13.63;;;;;-2.30;96523.00;;;;8372850;28;20633;-69
2022/03/05 02:45:46;;;;;;;29.23;12.07;;;;;-2.10;96514.00;;;;8373399;28;20269;-70
2022/03/05 02:49:49;;;;;;;36.07;12.53;;;;;-2.00;96521.00;;;;8374033;28;20231;-70
2022/03/05 02:53:53;;;;;;;23.73;9.23;;;;;-1.90;96519.00;;;;8370722;28;20551;-70
2022/03/05 02:57:56;;;;;;;37.97;13.03;;;;;-1.80;96512.00;;;;8373481;28;20243;-70
2022/03/05 03:01:59;;;;;;;35.53;14.10;;;;;-1.70;96511.00;;;;8444851;22;20241;-71
2022/03/05 03:06:03;;;;;;;30.03;13.03;;;;;-1.70;96510.00;;;;8396054;28;20231;-68
2022/03/05 03:10:09;;;;;;;32.37;12.77;;;;;-1.70;96506.00;;;;8395207;28;20235;-68
2022/03/05 03:14:12;;;;;;;31.10;12.83;;;;;-1.70;96508.00;;;;8399177;28;20261;-69
2022/03/05 03:18:17;;;;;;;37.60;14.43;;;;;-1.70;96509.00;;;;8399060;28;20292;-71
2022/03/05 03:22:20;;;;;;;33.03;13.83;;;;;-1.70;96511.00;;;;8395089;28;20277;-68
2022/03/05 03:26:24;;;;;;;29.07;12.13;;;;;-1.70;96505.00;;;;8396569;28;20323;-70
2022/03/05 03:30:27;;;;;;;31.50;12.03;;;;;-1.70;96506.00;;;;8400985;28;20222;-69
2022/03/05 03:34:30;;;;;;;38.00;13.47;;;;;-1.70;96512.00;;;;8391156;28;20273;-68
2022/03/05 03:38:33;;;;;;;34.57;13.30;;;;;-1.70;96517.00;;;;8387872;28;20232;-71
2022/03/05 03:42:38;;;;;;;37.10;14.17;;;;;-1.70;96516.00;;;;8405300;28;21915;-68
2022/03/05 03:46:41;;;;;;;33.80;13.53;;;;;-1.70;96526.00;;;;8404373;28;20226;-71
2022/03/05 03:50:44;;;;;;;32.60;11.87;;;;;-1.70;96528.00;;;;8402577;28;20314;-69
2022/03/05 03:54:49;;;;;;;32.77;13.50;;;;;-1.70;96525.00;;;;8401965;28;20223;-68
2022/03/05 03:58:53;;;;;;;37.97;13.83;;;;;-1.80;96532.00;;;;8406248;28;20282;-70
2022/03/05 04:02:56;;;;;;;42.50;14.80;;;;;-1.80;96528.00;;;;8403865;28;20279;-69
2022/03/05 04:11:20;;;;;;;29.50;11.90;;;;;-1.80;96528.00;;;;8384177;28;20220;-69
2022/03/05 04:15:24;;;;;;;41.90;15.03;;;;;-1.90;96525.00;;;;8369097;28;20681;-69
2022/03/05 04:19:27;;;;;;;42.10;15.47;;;;;-1.90;96524.00;;;;8373908;28;20285;-69
2022/03/05 04:23:30;;;;;;;36.03;14.20;;;;;-1.90;96523.00;;;;8366520;28;20233;-67
2022/03/05 04:27:33;;;;;;;44.40;15.60;;;;;-2.00;96530.00;;;;8384857;28;20232;-69
2022/03/05 04:31:37;;;;;;;45.23;16.47;;;;;-2.00;96537.00;;;;8385681;28;20232;-68
2022/03/05 04:35:41;;;;;;;38.63;15.47;;;;;-2.10;96521.00;;;;8379724;28;20944;-69
2022/03/05 04:39:44;;;;;;;47.57;16.70;;;;;-2.10;96530.00;;;;8385162;28;20227;-69
2022/03/05 04:43:48;;;;;;;43.57;15.87;;;;;-2.10;96533.00;;;;8387960;28;20277;-68
2022/03/05 04:47:53;;;;;;;42.90;15.53;;;;;-2.10;96530.00;;;;8385400;28;20219;-68
2022/03/05 04:51:56;;;;;;;45.83;16.20;;;;;-2.10;96535.00;;;;8384965;28;20224;-69
2022/03/05 04:55:59;;;;;;;50.03;16.60;;;;;-2.20;96528.00;;;;8399894;28;20844;-68
2022/03/05 05:00:03;;;;;;;48.47;16.37;;;;;-2.20;96537.00;;;;8385845;28;20267;-68
2022/03/05 05:04:07;;;;;;;50.97;17.37;;;;;-2.10;96543.00;;;;8383917;28;20321;-68
2022/03/05 05:08:10;;;;;;;41.83;16.40;;;;;-2.20;96539.00;;;;8391314;28;20273;-68
2022/03/05 05:12:13;;;;;;;46.53;15.53;;;;;-2.20;96548.00;;;;8391019;28;20229;-68
2022/03/05 05:16:16;;;;;;;47.40;15.40;;;;;-2.20;96550.00;;;;8369416;28;20251;-68
2022/03/05 05:20:21;;;;;;;36.90;14.23;;;;;-2.20;96549.00;;;;8387587;28;20228;-67
2022/03/05 05:24:24;;;;;;;44.60;15.60;;;;;-2.20;96553.00;;;;8379694;28;20231;-68
2022/03/05 05:28:27;;;;;;;46.73;15.93;;;;;-2.20;96549.00;;;;8372046;28;20277;-68
2022/03/05 05:32:30;;;;;;;47.60;17.47;;;;;-2.30;96560.00;;;;8370096;28;20224;-68
2022/03/05 05:36:36;;;;;;;53.07;18.63;;;;;-2.20;96559.00;;;;8375807;28;20219;-68
2022/03/05 05:40:39;;;;;;;49.23;17.53;;;;;-2.20;96565.00;;;;8378180;28;20703;-67
2022/03/05 05:44:43;;;;;;;51.30;17.50;;;;;-2.10;96568.00;;;;8377146;28;20228;-69
2022/03/05 05:48:47;;;;;;;42.40;16.73;;;;;-2.10;96565.00;;;;8372215;28;20220;-68
2022/03/05 05:52:51;;;;;;;50.33;18.07;;;;;-2.10;96564.00;;;;8388777;28;20250;-69
2022/03/05 05:56:54;;;;;;;52.03;17.87;;;;;-2.10;96571.00;;;;8381933;28;20246;-68
2022/03/05 06:00:57;;;;;;;45.70;16.23;;;;;-2.20;96576.00;;;;8377920;28;20281;-69
2022/03/05 06:05:00;;;;;;;60.23;19.70;;;;;-2.20;96573.00;;;;8378633;28;20254;-68
2022/03/05 06:09:04;;;;;;;59.20;18.73;;;;;-2.10;96574.00;;;;8392104;28;20665;-68
2022/03/05 06:13:07;;;;;;;54.60;21.73;;;;;-2.10;96578.00;;;;8384427;28;20412;-69
2022/03/05 06:17:10;;;;;;;62.37;20.77;;;;;-2.00;96585.00;;;;8381637;28;20262;-70
2022/03/05 06:21:14;;;;;;;62.00;20.07;;;;;-2.00;96577.00;;;;8386837;28;20224;-69
2022/03/05 06:25:19;;;;;;;63.23;22.30;;;;;-1.90;96573.00;;;;8394796;28;20219;-69
2022/03/05 06:29:22;;;;;;;57.33;20.30;;;;;-1.90;96578.00;;;;8385762;28;20287;-68
2022/03/05 06:33:25;;;;;;;49.23;17.63;;;;;-1.80;96577.00;;;;8366489;28;20229;-69
2022/03/05 06:37:28;;;;;;;52.07;19.53;;;;;-1.80;96577.00;;;;8366729;28;20859;-69
2022/03/05 06:41:32;;;;;;;54.00;19.67;;;;;-1.70;96583.00;;;;8376948;28;20270;-69
2022/03/05 06:45:35;;;;;;;54.90;19.47;;;;;-1.60;96584.00;;;;8371307;28;20274;-70
2022/03/05 06:49:38;;;;;;;51.53;18.13;;;;;-1.40;96589.00;;;;8374351;28;20220;-69
2022/03/05 06:53:42;;;;;;;61.27;20.50;;;;;-1.30;96596.00;;;;8379189;28;20255;-67
2022/03/05 06:57:47;;;;;;;52.57;19.67;;;;;-1.10;96590.00;;;;8366601;28;20335;-69
2022/03/05 07:01:50;;;;;;;61.87;19.43;;;;;-1.00;96590.00;;;;8378072;28;20266;-68
2022/03/05 07:05:53;;;;;;;50.47;18.07;;;;;-0.90;96594.00;;;;8369361;28;20278;-69
2022/03/05 07:09:56;;;;;;;55.80;19.73;;;;;-0.90;96597.00;;;;8384851;28;20560;-70
2022/03/05 07:14:00;;;;;;;50.90;19.40;;;;;-0.80;96594.00;;;;8374927;28;20627;-67
2022/03/05 07:18:03;;;;;;;58.23;20.07;;;;;-0.60;96598.00;;;;8387517;28;20287;-67
2022/03/05 07:22:06;;;;;;;53.90;18.43;;;;;-0.60;96597.00;;;;8369295;28;21018;-67
2022/03/05 07:26:09;;;;;;;47.47;17.90;;;;;-0.60;96596.00;;;;8369480;28;20223;-66
2022/03/05 07:30:14;;;;;;;46.50;18.70;;;;;-0.50;96598.00;;;;8365730;28;20215;-67
2022/03/05 07:34:17;;;;;;;54.90;19.80;;;;;-0.50;96604.00;;;;8369829;28;20277;-69
2022/03/05 07:38:20;;;;;;;50.70;17.47;;;;;-0.30;96596.00;;;;8370054;28;20246;-67
2022/03/05 07:42:23;;;;;;;47.90;17.67;;;;;-0.20;96606.00;;;;8383667;28;20829;-66
2022/03/05 07:46:27;;;;;;;47.70;18.53;;;;;-0.10;96611.00;;;;8376494;28;20273;-66
2022/03/05 07:50:31;;;;;;;37.57;13.93;;;;;0.00;96603.00;;;;8384249;28;20223;-68
2022/03/05 07:54:34;;;;;;;40.23;12.13;;;;;0.10;96623.00;;;;8378741;28;20334;-66
2022/03/05 07:58:37;;;;;;;41.37;16.70;;;;;0.20;96608.00;;;;8374977;28;20224;-67
2022/03/05 08:02:42;;;;;;;42.93;15.47;;;;;0.30;96609.00;;;;8379824;28;20628;-67
2022/03/05 08:06:45;;;;;;;38.93;15.23;;;;;0.40;96618.00;;;;8384788;28;20247;-66
2022/03/05 08:10:48;;;;;;;48.10;18.47;;;;;0.40;96620.00;;;;8373043;28;20224;-66
2022/03/05 08:14:51;;;;;;;47.87;16.50;;;;;0.50;96618.00;;;;8371784;28;20290;-66
2022/03/05 08:18:55;;;;;;;41.83;16.30;;;;;0.60;96615.00;;;;8368120;28;20284;-66
2022/03/05 08:23:01;;;;;;;47.30;17.57;;;;;0.70;96620.00;;;;8366227;28;20289;-69
2022/03/05 08:27:04;;;;;;;43.23;15.67;;;;;0.70;96624.00;;;;8368150;28;20228;-68
2022/03/05 08:31:07;;;;;;;48.13;16.47;;;;;0.90;96623.00;;;;8372164;28;20733;-67
2022/03/05 08:35:13;;;;;;;47.93;19.67;;;;;1.00;96622.00;;;;8382352;28;20227;-66
2022/03/05 08:39:16;;;;;;;47.27;17.40;;;;;1.10;96618.00;;;;8389716;28;20227;-67
2022/03/05 08:43:20;;;;;;;39.50;15.57;;;;;1.20;96630.00;;;;8385216;28;20220;-68
2022/03/05 08:47:23;;;;;;;47.70;17.47;;;;;1.40;96634.00;;;;8378366;28;20277;-66
2022/03/05 08:51:27;;;;;;;40.53;15.57;;;;;1.50;96625.00;;;;8374358;28;20236;-66
2022/03/05 08:55:30;;;;;;;41.43;15.77;;;;;1.60;96626.00;;;;8373836;28;20285;-66
2022/03/05 08:59:33;;;;;;;41.27;16.63;;;;;1.70;96627.00;;;;8365371;28;20228;-66
2022/03/05 09:03:36;;;;;;;43.63;16.67;;;;;1.80;96632.00;;;;8369654;28;20286;-66
2022/03/05 09:07:41;;;;;;;38.07;15.93;;;;;2.00;96636.00;;;;8370393;28;20237;-68
2022/03/05 09:11:44;;;;;;;39.87;15.57;;;;;2.20;96624.00;;;;8372634;28;20241;-69
2022/03/05 09:15:47;;;;;;;41.00;17.23;;;;;2.40;96623.00;;;;8364146;28;20217;-68
2022/03/05 09:19:50;;;;;;;40.60;14.10;;;;;2.60;96624.00;;;;8380324;28;20670;-70
2022/03/05 09:23:55;;;;;;;35.53;13.83;;;;;2.80;96628.00;;;;8373757;28;20221;-68
2022/03/05 09:27:59;;;;;;;40.23;15.87;;;;;3.00;96625.00;;;;8370404;28;20305;-69
2022/03/05 09:32:02;;;;;;;38.30;14.83;;;;;3.40;96618.00;;;;8374175;28;20320;-66
2022/03/05 09:36:06;;;;;;;37.50;16.53;;;;;3.80;96622.00;;;;8372028;28;20224;-66
2022/03/05 09:40:12;;;;;;;39.37;16.70;;;;;4.00;96631.00;;;;8366366;28;20226;-70
2022/03/05 09:44:15;;;;;;;30.13;12.50;;;;;4.20;96628.00;;;;8365841;28;20239;-69
2022/03/05 09:48:18;;;;;;;33.93;12.97;;;;;4.40;96631.00;;;;8370070;28;21133;-70
2022/03/05 09:52:21;;;;;;;31.23;13.20;;;;;4.60;96636.00;;;;8373164;28;20342;-73
2022/03/05 09:56:28;;;;;;;33.13;14.93;;;;;4.70;96632.00;;;;8382696;28;20263;-72
2022/03/05 10:00:31;;;;;;;29.77;13.00;;;;;4.80;96624.00;;;;8375312;28;20240;-73
2022/03/05 10:04:35;;;;;;;34.07;14.20;;;;;5.00;96615.00;;;;8367293;28;20236;-77
2022/03/05 10:08:38;;;;;;;29.77;12.70;;;;;5.10;96627.00;;;;8370726;28;20235;-74
2022/03/05 10:12:43;;;;;;;30.37;13.47;;;;;5.30;96617.00;;;;8372456;28;20292;-73
2022/03/05 10:16:46;;;;;;;30.10;13.23;;;;;5.40;96628.00;;;;8378994;28;20826;-73
2022/03/05 10:20:51;;;;;;;29.27;13.07;;;;;5.70;96623.00;;;;8371902;28;20235;-72
2022/03/05 10:24:56;;;;;;;28.70;11.93;;;;;5.60;96619.00;;;;8373097;28;20229;-76
2022/03/05 10:29:18;;;;;;;23.37;10.23;;;;;5.80;96615.00;;;;8352617;28;20224;-74
2022/03/05 10:33:27;;;;;;;27.50;11.80;;;;;6.20;96615.00;;;;8354699;28;20239;-76
2022/03/05 10:37:34;;;;;;;29.43;12.43;;;;;6.20;96603.00;;;;8366949;28;20660;-75
2022/03/05 10:41:40;;;;;;;26.77;12.43;;;;;6.50;96614.00;;;;8375776;28;20218;-76
2022/03/05 10:45:52;;;;;;;24.43;11.30;;;;;6.10;96616.00;;;;8354913;28;20222;-75
2022/03/05 10:49:55;;;;;;;29.13;12.43;;;;;5.90;96616.00;;;;8353020;28;20250;-76
2022/03/05 10:53:58;;;;;;;22.73;11.13;;;;;6.00;96613.00;;;;8365864;28;20227;-77
2022/03/05 10:58:04;;;;;;;17.57;9.13;;;;;6.20;96617.00;;;;8359287;28;20245;-77
2022/03/05 11:02:08;;;;;;;17.30;7.93;;;;;6.20;96627.00;;;;8363671;28;20282;-77
2022/03/05 11:06:13;;;;;;;16.33;8.40;;;;;6.10;96619.00;;;;8352589;28;20227;-79
2022/03/05 11:10:18;;;;;;;19.03;9.23;;;;;6.10;96621.00;;;;8350648;28;20293;-77
2022/03/05 11:14:23;;;;;;;20.97;9.77;;;;;6.20;96613.00;;;;8370664;28;20226;-79
2022/03/05 11:18:27;;;;;;;21.27;9.53;;;;;6.10;96608.00;;;;8366173;28;20234;-79
2022/03/05 11:22:31;;;;;;;19.77;9.73;;;;;6.20;96607.00;;;;8361804;28;20755;-78
2022/03/05 11:26:37;;;;;;;23.93;9.30;;;;;6.10;96600.00;;;;8360920;28;20243;-74
2022/03/05 11:31:00;;;;;;;21.73;9.00;;;;;6.60;96592.00;;;;8352067;28;20590;-74
2022/03/05 11:35:19;;;;;;;23.33;11.27;;;;;6.90;96589.00;;;;8362465;28;20838;-75
2022/03/05 11:39:23;;;;;;;25.83;10.77;;;;;6.70;96585.00;;;;8348825;28;20227;-76
2022/03/05 11:43:27;;;;;;;20.10;9.07;;;;;6.60;96589.00;;;;8369682;28;20228;-74
2022/03/05 11:47:32;;;;;;;21.97;8.90;;;;;6.30;96587.00;;;;8367463;28;20231;-74
2022/03/05 11:51:52;;;;;;;22.77;10.90;;;;;6.10;96577.00;;;;8353397;28;20241;-75
2022/03/05 11:55:56;;;;;;;26.70;11.50;;;;;6.00;96570.00;;;;8365332;28;20286;-74
2022/03/05 12:00:03;;;;;;;20.47;9.67;;;;;5.90;96576.00;;;;8363893;28;20232;-76
2022/03/05 12:04:23;;;;;;;22.53;10.50;;;;;5.90;96567.00;;;;8359956;28;20322;-76
2022/03/05 12:08:51;;;;;;;17.43;8.67;;;;;6.00;96567.00;;;;8363134;28;20622;-77
2022/03/05 12:12:56;;;;;;;23.70;9.03;;;;;6.10;96559.00;;;;8367389;28;20230;-75
2022/03/05 12:17:09;;;;;;;16.90;8.40;;;;;6.10;96567.00;;;;8373046;28;20258;-76
2022/03/05 12:21:12;;;;;;;16.60;7.83;;;;;6.20;96556.00;;;;8374135;28;20233;-77
2022/03/05 12:25:17;;;;;;;13.70;7.47;;;;;6.30;96551.00;;;;8366765;28;20277;-76
2022/03/05 12:29:20;;;;;;;8.93;5.33;;;;;6.50;96551.00;;;;8359117;28;20640;-78
2022/03/05 12:33:24;;;;;;;13.83;6.20;;;;;6.50;96544.00;;;;8354980;28;20621;-79
2022/03/05 12:37:31;;;;;;;12.83;6.53;;;;;6.70;96544.00;;;;8369052;28;20231;-79
2022/03/05 12:41:35;;;;;;;11.97;6.70;;;;;6.60;96546.00;;;;8374351;28;20284;-75
2022/03/05 12:45:41;;;;;;;12.63;6.77;;;;;6.50;96547.00;;;;8380248;28;20237;-79
2022/03/05 12:49:44;;;;;;;13.23;6.63;;;;;6.60;96546.00;;;;8373109;28;20238;-77
2022/03/05 12:53:47;;;;;;;11.43;6.57;;;;;6.60;96550.00;;;;8364430;28;20241;-77
2022/03/05 12:57:52;;;;;;;11.57;6.30;;;;;6.80;96545.00;;;;8367895;28;20735;-77
2022/03/05 13:02:04;;;;;;;13.57;6.33;;;;;6.70;96536.00;;;;8364797;28;20266;-76
2022/03/05 13:06:08;;;;;;;14.33;6.53;;;;;6.50;96529.00;;;;8362494;28;20236;-78
2022/03/05 13:10:12;;;;;;;15.87;7.07;;;;;6.20;96540.00;;;;8378162;28;20950;-79
2022/03/05 13:14:21;;;;;;;16.17;7.50;;;;;6.30;96532.00;;;;8368804;28;20235;-79
2022/03/05 13:18:24;;;;;;;14.17;7.47;;;;;6.70;96535.00;;;;8362910;28;20324;-79
2022/03/05 13:22:28;;;;;;;13.43;7.10;;;;;6.80;96535.00;;;;8364346;28;20269;-78
2022/03/05 13:26:33;;;;;;;12.03;6.67;;;;;7.00;96538.00;;;;8367084;28;20282;-79
2022/03/05 13:30:42;;;;;;;13.87;7.73;;;;;7.20;96540.00;;;;8363735;28;20991;-79
2022/03/05 13:34:45;;;;;;;12.33;7.27;;;;;7.10;96537.00;;;;8351579;28;20236;-79
2022/03/05 13:38:49;;;;;;;13.63;6.67;;;;;7.20;96532.00;;;;8370877;28;20227;-80
2022/03/05 13:42:57;;;;;;;14.00;7.10;;;;;7.10;96532.00;;;;8363078;28;20309;-80
2022/03/05 13:47:03;;;;;;;14.87;7.10;;;;;7.10;96525.00;;;;8364736;28;20224;-81
2022/03/05 13:51:13;;;;;;;16.13;7.40;;;;;6.80;96524.00;;;;8358894;28;20316;-81
2022/03/05 13:55:17;;;;;;;17.23;7.60;;;;;6.40;96522.00;;;;8355884;28;20240;-81
2022/03/05 13:59:21;;;;;;;16.53;8.77;;;;;6.10;96518.00;;;;8372505;28;21095;-80
2022/03/05 14:03:26;;;;;;;16.47;8.07;;;;;6.00;96528.00;;;;8351882;28;20741;-79
2022/03/05 14:07:30;;;;;;;16.53;8.13;;;;;5.90;96520.00;;;;8360541;28;20285;-80
2022/03/05 14:11:34;;;;;;;12.40;6.57;;;;;5.80;96515.00;;;;8365313;28;20314;-79
2022/03/05 14:15:38;;;;;;;21.70;9.10;;;;;5.80;96524.00;;;;8364421;28;20294;-81
2022/03/05 14:19:42;;;;;;;17.93;8.33;;;;;5.80;96521.00;;;;8363145;28;20225;-80
2022/03/05 14:23:45;;;;;;;16.87;8.83;;;;;5.80;96531.00;;;;8368556;28;20223;-79
2022/03/05 14:27:50;;;;;;;17.47;8.10;;;;;5.80;96520.00;;;;8364558;28;20278;-79
2022/03/05 14:31:53;;;;;;;19.40;9.63;;;;;5.80;96513.00;;;;8359238;28;20285;-79
2022/03/05 14:35:58;;;;;;;16.63;7.27;;;;;5.80;96517.00;;;;8375143;28;20919;-79
2022/03/05 14:40:01;;;;;;;13.97;7.63;;;;;5.70;96525.00;;;;8362621;28;20220;-79
2022/03/05 14:44:04;;;;;;;15.67;7.97;;;;;5.70;96517.00;;;;8370031;28;20288;-81
2022/03/05 14:48:08;;;;;;;17.77;8.60;;;;;5.60;96514.00;;;;8374809;28;20284;-81
2022/03/05 14:52:13;;;;;;;16.97;8.23;;;;;5.60;96515.00;;;;8364068;28;20228;-83
2022/03/05 14:56:16;;;;;;;24.23;9.03;;;;;5.50;96518.00;;;;8375023;28;20870;-81
2022/03/05 15:00:20;;;;;;;19.80;9.13;;;;;5.40;96516.00;;;;8370049;28;20273;-81
2022/03/05 15:04:22;;;;;;;16.97;8.80;;;;;5.40;96513.00;;;;8357621;28;20676;-81
2022/03/05 15:08:27;;;;;;;20.77;10.13;;;;;5.40;96516.00;;;;8371941;28;20285;-81
2022/03/05 15:12:30;;;;;;;17.83;8.47;;;;;5.50;96513.00;;;;8373869;28;20672;-81
2022/03/05 15:16:35;;;;;;;17.67;8.23;;;;;5.40;96508.00;;;;8372558;28;20638;-81
2022/03/05 15:20:39;;;;;;;18.67;7.60;;;;;5.30;96504.00;;;;8361099;28;20232;-81
2022/03/05 15:24:44;;;;;;;14.77;7.50;;;;;5.30;96509.00;;;;8368032;28;20280;-81
2022/03/05 15:28:49;;;;;;;18.13;7.27;;;;;5.40;96504.00;;;;8365437;28;20277;-80
2022/03/05 15:32:52;;;;;;;20.67;7.63;;;;;5.40;96500.00;;;;8375122;28;20365;-81
2022/03/05 15:36:55;;;;;;;15.60;7.00;;;;;5.40;96503.00;;;;8377640;28;20870;-81
2022/03/05 15:41:00;;;;;;;16.17;8.37;;;;;5.30;96506.00;;;;8380437;28;20223;-80
2022/03/05 15:45:04;;;;;;;13.27;6.57;;;;;5.20;96501.00;;;;8373712;28;20227;-82
2022/03/05 15:49:08;;;;;;;19.37;9.03;;;;;5.20;96498.00;;;;8369140;28;20296;-80
2022/03/05 15:53:11;;;;;;;13.67;7.03;;;;;5.20;96494.00;;;;8370693;28;20623;-80
2022/03/05 15:57:15;;;;;;;16.23;7.43;;;;;5.30;96503.00;;;;8366464;28;20234;-81
2022/03/05 16:01:19;;;;;;;15.67;7.80;;;;;5.50;96498.00;;;;8365971;28;20220;-78
2022/03/05 16:05:23;;;;;;;17.83;8.20;;;;;5.50;96490.00;;;;8383137;28;20245;-80
2022/03/05 16:09:26;;;;;;;18.60;8.40;;;;;5.40;96497.00;;;;8359126;28;20243;-80
2022/03/05 16:13:30;;;;;;;30.03;8.83;;;;;5.30;96497.00;;;;8350694;28;20220;-80
2022/03/05 16:17:34;;;;;;;17.67;8.77;;;;;5.30;96503.00;;;;8348079;28;20731;-79
2022/03/05 16:21:37;;;;;;;17.80;8.40;;;;;5.10;96501.00;;;;8346685;28;20224;-79
2022/03/05 16:25:41;;;;;;;19.00;8.57;;;;;4.90;96497.00;;;;8348134;28;20268;-80
2022/03/05 16:29:45;;;;;;;22.67;8.90;;;;;4.80;96501.00;;;;8341542;28;20281;-79
2022/03/05 16:33:49;;;;;;;18.07;8.30;;;;;4.70;96501.00;;;;8348672;28;20283;-79
2022/03/05 16:37:52;;;;;;;16.53;8.20;;;;;4.60;96504.00;;;;8345216;28;20227;-78
2022/03/05 16:41:55;;;;;;;21.77;8.53;;;;;4.50;96509.00;;;;8345952;28;20221;-78
2022/03/05 16:46:00;;;;;;;18.87;9.00;;;;;4.40;96499.00;;;;8349623;28;20232;-79
2022/03/05 16:50:04;;;;;;;21.77;9.67;;;;;4.30;96507.00;;;;8343821;28;20226;-76
2022/03/05 16:54:07;;;;;;;21.17;9.33;;;;;4.20;96501.00;;;;8342525;28;20221;-77
2022/03/05 16:58:10;;;;;;;17.97;8.80;;;;;4.20;96503.00;;;;8340576;28;20239;-78
2022/03/05 17:02:14;;;;;;;17.70;8.30;;;;;4.10;96504.00;;;;8344291;28;20231;-78
2022/03/05 17:06:19;;;;;;;21.40;8.57;;;;;4.00;96510.00;;;;8343101;28;20231;-78
2022/03/05 17:10:22;;;;;;;14.67;7.50;;;;;4.00;96502.00;;;;8349083;28;20259;-78
2022/03/05 17:14:26;;;;;;;20.43;8.47;;;;;3.90;96510.00;;;;8346930;28;20318;-79
2022/03/05 17:18:30;;;;;;;17.30;8.23;;;;;3.80;96508.00;;;;8349044;28;20269;-79
2022/03/05 17:22:35;;;;;;;19.43;9.00;;;;;3.80;96514.00;;;;8348532;28;20669;-79
2022/03/05 17:26:38;;;;;;;21.90;10.67;;;;;3.80;96516.00;;;;8344155;28;20289;-79
2022/03/05 17:30:41;;;;;;;24.30;10.27;;;;;3.70;96522.00;;;;8347698;28;20275;-79
2022/03/05 17:34:46;;;;;;;22.10;10.30;;;;;3.70;96536.00;;;;8344379;28;20317;-78
2022/03/05 17:38:49;;;;;;;21.50;10.10;;;;;3.60;96534.00;;;;8346579;28;20278;-78
2022/03/05 17:42:52;;;;;;;21.30;9.47;;;;;3.60;96536.00;;;;8343640;28;20228;-78
2022/03/05 17:46:59;;;;;;;21.97;9.43;;;;;3.50;96541.00;;;;8344296;28;20272;-77
2022/03/05 17:51:04;;;;;;;21.43;10.10;;;;;3.50;96536.00;;;;8343574;28;20278;-76
2022/03/05 17:55:08;;;;;;;19.93;10.30;;;;;3.40;96540.00;;;;8343017;28;20225;-75
2022/03/05 17:59:11;;;;;;;18.17;8.90;;;;;3.40;96545.00;;;;8346965;28;20216;-78
2022/03/05 18:03:16;;;;;;;22.20;10.13;;;;;3.40;96546.00;;;;8346136;28;20748;-78
2022/03/05 18:07:20;;;;;;;19.00;9.80;;;;;3.30;96543.00;;;;8341179;28;20259;-78
2022/03/05 18:11:24;;;;;;;20.50;10.03;;;;;3.30;96546.00;;;;8343395;28;21166;-76
2022/03/05 18:15:28;;;;;;;18.97;9.40;;;;;3.40;96546.00;;;;8343711;28;20289;-77
2022/03/05 18:19:30;;;;;;;23.33;9.27;;;;;3.30;96550.00;;;;8349832;28;20253;-77
2022/03/05 18:23:35;;;;;;;18.80;9.40;;;;;3.30;96554.00;;;;8352171;28;20299;-77
2022/03/05 18:27:38;;;;;;;24.67;10.87;;;;;3.20;96547.00;;;;8339604;28;20228;-76
2022/03/05 18:31:42;;;;;;;25.30;10.27;;;;;3.20;96551.00;;;;8336088;28;20226;-77
2022/03/05 18:35:45;;;;;;;23.03;10.67;;;;;3.20;96554.00;;;;8345136;28;20232;-78
2022/03/05 18:39:49;;;;;;;21.73;10.07;;;;;3.10;96555.00;;;;8334650;28;20284;-80
2022/03/05 18:43:53;;;;;;;25.40;11.40;;;;;3.10;96557.00;;;;8335426;28;20268;-80
2022/03/05 18:47:58;;;;;;;24.90;11.47;;;;;3.10;96560.00;;;;8342671;28;20324;-78
2022/03/05 18:52:01;;;;;;;24.57;10.93;;;;;3.10;96568.00;;;;8330421;28;20228;-78
2022/03/05 18:56:06;;;;;;;22.93;10.53;;;;;3.00;96568.00;;;;8340197;28;20240;-79
2022/03/05 19:00:11;;;;;;;23.10;11.07;;;;;3.00;96565.00;;;;8345476;28;20295;-78
2022/03/05 19:04:15;;;;;;;20.80;9.80;;;;;3.10;96570.00;;;;8344724;28;20233;-78
2022/03/05 19:08:20;;;;;;;23.83;12.03;;;;;3.00;96572.00;;;;8342988;28;20602;-78
2022/03/05 19:12:25;;;;;;;24.00;11.30;;;;;3.00;96573.00;;;;8338551;28;20745;-77
2022/03/05 19:16:27;;;;;;;28.67;11.47;;;;;3.00;96563.00;;;;8343946;28;20347;-77
2022/03/05 19:20:31;;;;;;;22.90;10.97;;;;;3.00;96563.00;;;;8346558;28;20230;-77
2022/03/05 19:24:35;;;;;;;20.90;10.37;;;;;3.10;96560.00;;;;8341815;28;20237;-77
2022/03/05 19:28:40;;;;;;;26.57;11.33;;;;;3.00;96563.00;;;;8341667;28;20320;-77
2022/03/05 19:32:44;;;;;;;23.33;10.93;;;;;3.00;96565.00;;;;8341339;28;20274;-78
2022/03/05 19:36:47;;;;;;;23.73;11.03;;;;;3.00;96568.00;;;;8351730;28;20238;-79
2022/03/05 19:40:50;;;;;;;24.77;11.37;;;;;3.00;96571.00;;;;8346215;28;20236;-78
2022/03/05 19:44:55;;;;;;;26.13;12.60;;;;;3.00;96574.00;;;;8343412;28;20295;-78
2022/03/05 19:48:58;;;;;;;24.73;11.33;;;;;3.00;96578.00;;;;8334972;28;20263;-77
2022/03/05 19:53:01;;;;;;;24.30;11.33;;;;;3.00;96568.00;;;;8336487;28;20272;-77
2022/03/05 19:57:05;;;;;;;25.87;11.57;;;;;3.00;96572.00;;;;8339885;28;20289;-78
2022/03/05 20:01:09;;;;;;;24.20;11.87;;;;;2.90;96567.00;;;;8338176;28;20231;-78
2022/03/05 20:05:13;;;;;;;23.60;10.10;;;;;2.90;96567.00;;;;8335298;28;20226;-78
2022/03/05 20:09:16;;;;;;;25.77;11.90;;;;;2.90;96565.00;;;;8330337;28;20637;-78
2022/03/05 20:13:19;;;;;;;22.73;11.10;;;;;2.90;96567.00;;;;8338431;28;20289;-78